sensor_id;sensor_type;location;lat;lon;timestamp;P1;durP1;ratioP1;P2;durP2;ratioP2
76749;SDS011;66447;35.844;14.468;2023-11-22T00:05:38;45.03;;;28.00;;
76749;SDS011;66447;35.844;14.468;2023-11-22T00:20:39;20.77;;;7.60;;
76749;SDS011;66447;35.844;14.468;2023-11-22T00:35:40;17.92;;;6.20;;
76749;SDS011;66447;35.844;14.468;2023-11-22T00:50:41;13.85;;;6.00;;
76749;SDS011;66447;35.844;14.468;2023-11-22T01:05:42;8.07;;;3.63;;
76749;SDS011;66447;35.844;14.468;2023-11-22T01:20:43;10.20;;;3.63;;
76749;SDS011;66447;35.844;14.468;2023-11-22T01:35:45;9.20;;;1.90;;
76749;SDS011;66447;35.844;14.468;2023-11-22T01:50:46;12.47;;;2.40;;
76749;SDS011;66447;35.844;14.468;2023-11-22T02:05:48;13.63;;;2.90;;
76749;SDS011;66447;35.844;14.468;2023-11-22T02:20:50;7.45;;;2.00;;
76749;SDS011;66447;35.844;14.468;2023-11-22T02:35:51;7.57;;;1.50;;
76749;SDS011;66447;35.844;14.468;2023-11-22T02:50:52;6.43;;;1.30;;
76749;SDS011;66447;35.844;14.468;2023-11-22T03:05:54;3.78;;;1.33;;
76749;SDS011;66447;35.844;14.468;2023-11-22T03:20:55;6.18;;;1.30;;
76749;SDS011;66447;35.844;14.468;2023-11-22T03:35:57;6.65;;;1.30;;
76749;SDS011;66447;35.844;14.468;2023-11-22T03:50:58;7.78;;;1.33;;
76749;SDS011;66447;35.844;14.468;2023-11-22T04:05:59;9.65;;;1.35;;
76749;SDS011;66447;35.844;14.468;2023-11-22T04:21:00;8.90;;;1.50;;
76749;SDS011;66447;35.844;14.468;2023-11-22T04:36:01;9.73;;;1.40;;
76749;SDS011;66447;35.844;14.468;2023-11-22T04:51:02;9.77;;;1.27;;
76749;SDS011;66447;35.844;14.468;2023-11-22T05:06:03;8.30;;;1.30;;
76749;SDS011;66447;35.844;14.468;2023-11-22T05:21:05;6.65;;;1.27;;
76749;SDS011;66447;35.844;14.468;2023-11-22T05:36:06;9.98;;;1.80;;
76749;SDS011;66447;35.844;14.468;2023-11-22T05:51:08;5.95;;;1.58;;
76749;SDS011;66447;35.844;14.468;2023-11-22T06:06:09;7.72;;;1.88;;
76749;SDS011;66447;35.844;14.468;2023-11-22T06:21:10;8.77;;;2.17;;
76749;SDS011;66447;35.844;14.468;2023-11-22T06:36:11;10.68;;;1.50;;
76749;SDS011;66447;35.844;14.468;2023-11-22T06:51:15;34.22;;;3.40;;
76749;SDS011;66447;35.844;14.468;2023-11-22T07:06:18;8.07;;;2.35;;
76749;SDS011;66447;35.844;14.468;2023-11-22T07:21:19;18.13;;;2.95;;
76749;SDS011;66447;35.844;14.468;2023-11-22T07:36:20;23.95;;;5.75;;
76749;SDS011;66447;35.844;14.468;2023-11-22T07:51:21;8.80;;;2.90;;
76749;SDS011;66447;35.844;14.468;2023-11-22T08:06:24;10.20;;;2.03;;
76749;SDS011;66447;35.844;14.468;2023-11-22T08:21:27;12.80;;;2.13;;
76749;SDS011;66447;35.844;14.468;2023-11-22T08:36:28;11.82;;;1.27;;
76749;SDS011;66447;35.844;14.468;2023-11-22T08:51:31;6.10;;;1.10;;
76749;SDS011;66447;35.844;14.468;2023-11-22T09:06:33;6.35;;;0.80;;
76749;SDS011;66447;35.844;14.468;2023-11-22T09:37:28;10.48;;;1.40;;
76749;SDS011;66447;35.844;14.468;2023-11-22T09:52:29;5.00;;;0.93;;
76749;SDS011;66447;35.844;14.468;2023-11-22T10:07:38;5.55;;;0.80;;
76749;SDS011;66447;35.844;14.468;2023-11-22T10:22:45;6.10;;;1.20;;
76749;SDS011;66447;35.844;14.468;2023-11-22T10:37:48;7.63;;;1.10;;
76749;SDS011;66447;35.844;14.468;2023-11-22T10:52:49;3.08;;;0.88;;
76749;SDS011;66447;35.844;14.468;2023-11-22T11:08:00;6.85;;;1.08;;
76749;SDS011;66447;35.844;14.468;2023-11-22T11:23:11;8.80;;;1.20;;
76749;SDS011;66447;35.844;14.468;2023-11-22T11:38:15;4.22;;;1.10;;
76749;SDS011;66447;35.844;14.468;2023-11-22T11:53:19;4.20;;;1.40;;
76749;SDS011;66447;35.844;14.468;2023-11-22T12:08:20;11.40;;;1.17;;
76749;SDS011;66447;35.844;14.468;2023-11-22T12:23:22;4.38;;;1.20;;
76749;SDS011;66447;35.844;14.468;2023-11-22T12:38:24;4.60;;;1.50;;
76749;SDS011;66447;35.844;14.468;2023-11-22T12:53:29;7.15;;;1.50;;
76749;SDS011;66447;35.844;14.468;2023-11-22T13:08:31;7.35;;;1.60;;
76749;SDS011;66447;35.844;14.468;2023-11-22T13:23:33;15.10;;;2.25;;
76749;SDS011;66447;35.844;14.468;2023-11-22T13:38:34;11.30;;;2.70;;
76749;SDS011;66447;35.844;14.468;2023-11-22T13:53:35;9.80;;;2.72;;
76749;SDS011;66447;35.844;14.468;2023-11-22T14:08:38;18.40;;;4.15;;
76749;SDS011;66447;35.844;14.468;2023-11-22T14:23:39;11.98;;;2.72;;
76749;SDS011;66447;35.844;14.468;2023-11-22T14:38:41;5.75;;;1.80;;
76749;SDS011;66447;35.844;14.468;2023-11-22T14:53:42;15.65;;;1.73;;
76749;SDS011;66447;35.844;14.468;2023-11-22T15:08:43;7.25;;;1.23;;
76749;SDS011;66447;35.844;14.468;2023-11-22T15:23:44;3.87;;;1.07;;
76749;SDS011;66447;35.844;14.468;2023-11-22T15:38:45;7.00;;;2.23;;
76749;SDS011;66447;35.844;14.468;2023-11-22T15:53:46;13.18;;;2.15;;
76749;SDS011;66447;35.844;14.468;2023-11-22T16:08:47;18.65;;;1.83;;
76749;SDS011;66447;35.844;14.468;2023-11-22T16:23:48;14.52;;;2.08;;
76749;SDS011;66447;35.844;14.468;2023-11-22T16:53:52;12.43;;;2.00;;
76749;SDS011;66447;35.844;14.468;2023-11-22T17:08:53;9.98;;;1.83;;
76749;SDS011;66447;35.844;14.468;2023-11-22T17:23:54;11.02;;;2.60;;
76749;SDS011;66447;35.844;14.468;2023-11-22T17:38:55;10.68;;;2.13;;
76749;SDS011;66447;35.844;14.468;2023-11-22T17:53:57;9.57;;;1.88;;
76749;SDS011;66447;35.844;14.468;2023-11-22T18:09:00;8.43;;;1.95;;
76749;SDS011;66447;35.844;14.468;2023-11-22T18:39:03;8.32;;;1.70;;
76749;SDS011;66447;35.844;14.468;2023-11-22T18:54:05;15.30;;;3.78;;
76749;SDS011;66447;35.844;14.468;2023-11-22T19:09:10;18.30;;;2.70;;
76749;SDS011;66447;35.844;14.468;2023-11-22T19:24:12;5.97;;;0.95;;
76749;SDS011;66447;35.844;14.468;2023-11-22T19:39:13;9.60;;;2.13;;
76749;SDS011;66447;35.844;14.468;2023-11-22T20:09:15;6.72;;;2.17;;
76749;SDS011;66447;35.844;14.468;2023-11-22T20:24:17;7.28;;;2.58;;
76749;SDS011;66447;35.844;14.468;2023-11-22T20:39:18;8.95;;;3.00;;
76749;SDS011;66447;35.844;14.468;2023-11-22T20:54:20;8.23;;;3.40;;
76749;SDS011;66447;35.844;14.468;2023-11-22T21:09:21;7.70;;;3.15;;
76749;SDS011;66447;35.844;14.468;2023-11-22T21:24:23;9.23;;;2.33;;
76749;SDS011;66447;35.844;14.468;2023-11-22T21:54:25;11.60;;;2.10;;
76749;SDS011;66447;35.844;14.468;2023-11-22T22:24:26;5.22;;;1.40;;
76749;SDS011;66447;35.844;14.468;2023-11-22T22:54:28;3.72;;;0.90;;
76749;SDS011;66447;35.844;14.468;2023-11-22T23:09:29;5.65;;;1.30;;
76749;SDS011;66447;35.844;14.468;2023-11-22T23:24:30;21.07;;;3.13;;
76749;SDS011;66447;35.844;14.468;2023-11-22T23:39:31;14.95;;;2.20;;
76749;SDS011;66447;35.844;14.468;2023-11-22T23:54:32;8.05;;;1.27;;
